Terminal Aerodrome Forecast
Issued by NWS Birmingham, AL

Home | Current Version | Previous Version | Text Only | Print | Product List | Glossary On
Versions: 1 2 3 4 5 6 7 8 9 10 11 12 13
000
FTUS44 KBMX 022320
TAFBHM
TAF
KBHM 022320Z 0300/0324 35008KT P6SM FEW080 SCT250
     FM030200 00000KT P6SM SCT250
     FM031500 36006KT P6SM SKC=

USA.gov is the U.S. government's official web portal to all federal, state and local government web resources and services.